Donalds, South Carolina
Current Conditions -  °F | °C
As of 4:56 AM on Sunday 21 Dec 2014 (Local Time) from KGRD Reporting Station
Overcast Overcast  
Wind Chill: 42°   Ceiling: 1800
Heat Index: 42°   Visibility: 8mi
Dew Point: 39°   Wind: 3mph
Humidity: 89%   Direction: 30°NNE
Pressure: 30.23"   Gusts: NA
Location:  34.38°N, 82.35°W
Report Text: KGRD 210956Z AUTO 03003KT 8SM OVC018 06/04 A3023 RMK AO2 SLP239 T00560039
Loading
Personal Weather Stations






























Interactive Weather Map New forecast layout! Learn more

10-Day Weather Forecast

Advertisements
Track Severe Weather on mobile